sensor_id;sensor_type;location;lat;lon;timestamp;P1;durP1;ratioP1;P2;durP2;ratioP2
21251;SDS011;10784;50.578;17.878;2022-10-22T00:01:18;12.48;;;6.25;;
21251;SDS011;10784;50.578;17.878;2022-10-22T00:03:51;11.40;;;5.53;;
21251;SDS011;10784;50.578;17.878;2022-10-22T00:06:24;12.25;;;5.60;;
21251;SDS011;10784;50.578;17.878;2022-10-22T00:08:57;9.23;;;5.23;;
21251;SDS011;10784;50.578;17.878;2022-10-22T00:11:30;10.35;;;4.93;;
21251;SDS011;10784;50.578;17.878;2022-10-22T00:14:03;8.70;;;4.28;;
21251;SDS011;10784;50.578;17.878;2022-10-22T00:16:36;11.27;;;4.07;;
21251;SDS011;10784;50.578;17.878;2022-10-22T00:19:08;9.70;;;4.35;;
21251;SDS011;10784;50.578;17.878;2022-10-22T00:21:42;10.27;;;4.47;;
21251;SDS011;10784;50.578;17.878;2022-10-22T00:24:15;9.65;;;4.47;;
21251;SDS011;10784;50.578;17.878;2022-10-22T00:26:47;9.35;;;4.15;;
21251;SDS011;10784;50.578;17.878;2022-10-22T00:29:20;9.90;;;4.65;;
21251;SDS011;10784;50.578;17.878;2022-10-22T00:31:53;12.73;;;5.18;;
21251;SDS011;10784;50.578;17.878;2022-10-22T00:34:27;11.40;;;4.93;;
21251;SDS011;10784;50.578;17.878;2022-10-22T00:37:00;13.05;;;5.63;;
21251;SDS011;10784;50.578;17.878;2022-10-22T00:39:32;10.23;;;4.73;;
21251;SDS011;10784;50.578;17.878;2022-10-22T00:42:05;12.38;;;4.82;;
21251;SDS011;10784;50.578;17.878;2022-10-22T00:45:02;7.18;;;3.97;;
21251;SDS011;10784;50.578;17.878;2022-10-22T00:50:16;7.72;;;4.32;;
21251;SDS011;10784;50.578;17.878;2022-10-22T00:52:50;6.40;;;4.07;;
21251;SDS011;10784;50.578;17.878;2022-10-22T00:55:24;11.23;;;4.53;;
21251;SDS011;10784;50.578;17.878;2022-10-22T00:57:57;7.97;;;4.38;;
21251;SDS011;10784;50.578;17.878;2022-10-22T01:00:31;10.23;;;4.28;;
21251;SDS011;10784;50.578;17.878;2022-10-22T01:03:04;9.80;;;5.50;;
21251;SDS011;10784;50.578;17.878;2022-10-22T01:05:46;12.68;;;4.88;;
21251;SDS011;10784;50.578;17.878;2022-10-22T01:16:24;9.50;;;4.80;;
21251;SDS011;10784;50.578;17.878;2022-10-22T01:19:13;9.07;;;4.65;;
21251;SDS011;10784;50.578;17.878;2022-10-22T01:21:54;6.57;;;3.87;;
21251;SDS011;10784;50.578;17.878;2022-10-22T01:30:15;10.17;;;5.10;;
21251;SDS011;10784;50.578;17.878;2022-10-22T01:32:58;12.63;;;5.43;;
21251;SDS011;10784;50.578;17.878;2022-10-22T01:35:34;10.32;;;5.78;;
21251;SDS011;10784;50.578;17.878;2022-10-22T01:38:10;12.13;;;5.88;;
21251;SDS011;10784;50.578;17.878;2022-10-22T01:40:45;16.25;;;5.07;;
21251;SDS011;10784;50.578;17.878;2022-10-22T01:43:18;11.73;;;5.78;;
21251;SDS011;10784;50.578;17.878;2022-10-22T01:45:53;12.05;;;5.25;;
21251;SDS011;10784;50.578;17.878;2022-10-22T01:54:10;7.50;;;4.10;;
21251;SDS011;10784;50.578;17.878;2022-10-22T02:04:52;8.02;;;4.18;;
21251;SDS011;10784;50.578;17.878;2022-10-22T02:07:31;10.60;;;4.32;;
21251;SDS011;10784;50.578;17.878;2022-10-22T02:10:06;9.73;;;5.60;;
21251;SDS011;10784;50.578;17.878;2022-10-22T02:12:40;8.18;;;4.22;;
21251;SDS011;10784;50.578;17.878;2022-10-22T02:15:14;7.90;;;4.53;;
21251;SDS011;10784;50.578;17.878;2022-10-22T02:17:49;11.60;;;5.05;;
21251;SDS011;10784;50.578;17.878;2022-10-22T02:20:25;12.38;;;5.03;;
21251;SDS011;10784;50.578;17.878;2022-10-22T02:22:59;12.07;;;5.03;;
21251;SDS011;10784;50.578;17.878;2022-10-22T02:25:33;8.63;;;4.65;;
21251;SDS011;10784;50.578;17.878;2022-10-22T02:28:19;10.25;;;5.13;;
21251;SDS011;10784;50.578;17.878;2022-10-22T02:30:56;8.98;;;4.20;;
21251;SDS011;10784;50.578;17.878;2022-10-22T02:33:32;7.83;;;4.33;;
21251;SDS011;10784;50.578;17.878;2022-10-22T02:36:07;7.90;;;4.65;;
21251;SDS011;10784;50.578;17.878;2022-10-22T02:38:40;10.35;;;4.90;;
21251;SDS011;10784;50.578;17.878;2022-10-22T02:41:14;11.32;;;4.53;;
21251;SDS011;10784;50.578;17.878;2022-10-22T02:43:48;9.75;;;4.43;;
21251;SDS011;10784;50.578;17.878;2022-10-22T02:46:22;11.60;;;4.45;;
21251;SDS011;10784;50.578;17.878;2022-10-22T02:48:55;10.67;;;5.00;;
21251;SDS011;10784;50.578;17.878;2022-10-22T02:51:28;9.23;;;4.03;;
21251;SDS011;10784;50.578;17.878;2022-10-22T02:54:01;8.60;;;4.57;;
21251;SDS011;10784;50.578;17.878;2022-10-22T02:56:33;11.40;;;4.80;;
21251;SDS011;10784;50.578;17.878;2022-10-22T02:59:06;8.15;;;4.63;;
21251;SDS011;10784;50.578;17.878;2022-10-22T03:01:39;9.10;;;4.17;;
21251;SDS011;10784;50.578;17.878;2022-10-22T03:04:11;10.67;;;4.80;;
21251;SDS011;10784;50.578;17.878;2022-10-22T03:06:44;10.10;;;4.55;;
21251;SDS011;10784;50.578;17.878;2022-10-22T03:09:20;9.40;;;4.78;;
21251;SDS011;10784;50.578;17.878;2022-10-22T03:11:55;7.18;;;4.25;;
21251;SDS011;10784;50.578;17.878;2022-10-22T03:14:29;13.32;;;4.40;;
21251;SDS011;10784;50.578;17.878;2022-10-22T03:17:01;8.70;;;4.55;;
21251;SDS011;10784;50.578;17.878;2022-10-22T03:19:34;8.95;;;4.57;;
21251;SDS011;10784;50.578;17.878;2022-10-22T03:22:23;9.43;;;4.90;;
21251;SDS011;10784;50.578;17.878;2022-10-22T03:24:57;9.82;;;4.45;;
21251;SDS011;10784;50.578;17.878;2022-10-22T03:27:31;9.48;;;4.95;;
21251;SDS011;10784;50.578;17.878;2022-10-22T03:30:05;9.07;;;4.80;;
21251;SDS011;10784;50.578;17.878;2022-10-22T03:32:38;9.43;;;4.50;;
21251;SDS011;10784;50.578;17.878;2022-10-22T03:35:11;8.32;;;4.38;;
21251;SDS011;10784;50.578;17.878;2022-10-22T03:37:43;10.23;;;4.38;;
21251;SDS011;10784;50.578;17.878;2022-10-22T03:40:16;11.93;;;5.10;;
21251;SDS011;10784;50.578;17.878;2022-10-22T03:42:49;14.70;;;4.88;;
21251;SDS011;10784;50.578;17.878;2022-10-22T03:45:22;10.52;;;5.07;;
21251;SDS011;10784;50.578;17.878;2022-10-22T03:47:54;12.80;;;4.45;;
21251;SDS011;10784;50.578;17.878;2022-10-22T03:50:27;10.05;;;4.95;;
21251;SDS011;10784;50.578;17.878;2022-10-22T03:53:00;11.17;;;4.87;;
21251;SDS011;10784;50.578;17.878;2022-10-22T03:55:33;12.13;;;4.80;;
21251;SDS011;10784;50.578;17.878;2022-10-22T03:58:05;10.85;;;4.80;;
21251;SDS011;10784;50.578;17.878;2022-10-22T04:00:38;9.20;;;4.75;;
21251;SDS011;10784;50.578;17.878;2022-10-22T04:03:11;9.02;;;4.75;;
21251;SDS011;10784;50.578;17.878;2022-10-22T04:05:44;10.27;;;5.03;;
21251;SDS011;10784;50.578;17.878;2022-10-22T04:08:16;10.40;;;4.82;;
21251;SDS011;10784;50.578;17.878;2022-10-22T04:10:49;7.43;;;4.22;;
21251;SDS011;10784;50.578;17.878;2022-10-22T04:13:22;11.07;;;5.07;;
21251;SDS011;10784;50.578;17.878;2022-10-22T04:15:55;8.38;;;4.55;;
21251;SDS011;10784;50.578;17.878;2022-10-22T04:18:28;11.27;;;5.03;;
21251;SDS011;10784;50.578;17.878;2022-10-22T04:21:00;12.32;;;5.20;;
21251;SDS011;10784;50.578;17.878;2022-10-22T04:23:33;9.05;;;4.40;;
21251;SDS011;10784;50.578;17.878;2022-10-22T04:26:06;12.90;;;4.80;;
21251;SDS011;10784;50.578;17.878;2022-10-22T04:28:39;10.45;;;4.70;;
21251;SDS011;10784;50.578;17.878;2022-10-22T04:31:13;10.52;;;4.80;;
21251;SDS011;10784;50.578;17.878;2022-10-22T04:33:45;10.23;;;4.85;;
21251;SDS011;10784;50.578;17.878;2022-10-22T04:36:19;11.23;;;4.60;;
21251;SDS011;10784;50.578;17.878;2022-10-22T04:38:55;11.93;;;4.57;;
21251;SDS011;10784;50.578;17.878;2022-10-22T04:41:32;12.75;;;4.72;;
21251;SDS011;10784;50.578;17.878;2022-10-22T04:44:05;6.90;;;4.28;;
21251;SDS011;10784;50.578;17.878;2022-10-22T04:46:47;9.95;;;4.38;;
21251;SDS011;10784;50.578;17.878;2022-10-22T04:49:19;8.00;;;4.05;;
21251;SDS011;10784;50.578;17.878;2022-10-22T04:51:52;8.77;;;4.65;;
21251;SDS011;10784;50.578;17.878;2022-10-22T04:54:25;10.82;;;4.63;;
21251;SDS011;10784;50.578;17.878;2022-10-22T04:57:04;10.20;;;4.78;;
21251;SDS011;10784;50.578;17.878;2022-10-22T04:59:36;8.07;;;4.55;;
21251;SDS011;10784;50.578;17.878;2022-10-22T05:02:09;9.70;;;4.72;;
21251;SDS011;10784;50.578;17.878;2022-10-22T05:04:42;9.93;;;4.80;;
21251;SDS011;10784;50.578;17.878;2022-10-22T05:07:16;10.00;;;4.80;;
21251;SDS011;10784;50.578;17.878;2022-10-22T05:09:48;8.52;;;4.13;;
21251;SDS011;10784;50.578;17.878;2022-10-22T05:12:21;9.57;;;4.70;;
21251;SDS011;10784;50.578;17.878;2022-10-22T05:14:54;11.23;;;4.32;;
21251;SDS011;10784;50.578;17.878;2022-10-22T05:17:27;9.48;;;4.53;;
21251;SDS011;10784;50.578;17.878;2022-10-22T05:20:00;12.70;;;4.75;;
21251;SDS011;10784;50.578;17.878;2022-10-22T05:22:33;9.48;;;4.18;;
21251;SDS011;10784;50.578;17.878;2022-10-22T05:25:06;9.55;;;4.90;;
21251;SDS011;10784;50.578;17.878;2022-10-22T05:27:39;12.88;;;4.53;;
21251;SDS011;10784;50.578;17.878;2022-10-22T05:30:12;12.52;;;4.60;;
21251;SDS011;10784;50.578;17.878;2022-10-22T05:32:45;11.88;;;5.93;;
21251;SDS011;10784;50.578;17.878;2022-10-22T05:35:17;7.70;;;4.22;;
21251;SDS011;10784;50.578;17.878;2022-10-22T05:37:50;8.55;;;4.57;;
21251;SDS011;10784;50.578;17.878;2022-10-22T05:40:23;11.52;;;4.88;;
21251;SDS011;10784;50.578;17.878;2022-10-22T05:43:02;8.48;;;4.78;;
21251;SDS011;10784;50.578;17.878;2022-10-22T05:45:38;8.43;;;4.80;;
21251;SDS011;10784;50.578;17.878;2022-10-22T05:48:11;8.10;;;5.13;;
21251;SDS011;10784;50.578;17.878;2022-10-22T05:50:44;8.50;;;4.93;;
21251;SDS011;10784;50.578;17.878;2022-10-22T05:53:22;8.40;;;4.55;;
21251;SDS011;10784;50.578;17.878;2022-10-22T05:55:54;8.55;;;4.82;;
21251;SDS011;10784;50.578;17.878;2022-10-22T05:58:27;8.35;;;4.70;;
21251;SDS011;10784;50.578;17.878;2022-10-22T06:01:07;10.40;;;5.05;;
21251;SDS011;10784;50.578;17.878;2022-10-22T06:03:43;10.48;;;4.65;;
21251;SDS011;10784;50.578;17.878;2022-10-22T06:08:52;11.80;;;5.15;;
21251;SDS011;10784;50.578;17.878;2022-10-22T06:11:27;7.55;;;4.22;;
21251;SDS011;10784;50.578;17.878;2022-10-22T06:14:06;10.85;;;4.60;;
21251;SDS011;10784;50.578;17.878;2022-10-22T06:16:38;9.10;;;4.22;;
21251;SDS011;10784;50.578;17.878;2022-10-22T06:19:13;6.72;;;4.20;;
21251;SDS011;10784;50.578;17.878;2022-10-22T06:21:46;8.82;;;4.50;;
21251;SDS011;10784;50.578;17.878;2022-10-22T06:24:19;9.10;;;4.45;;
21251;SDS011;10784;50.578;17.878;2022-10-22T06:26:51;9.57;;;4.72;;
21251;SDS011;10784;50.578;17.878;2022-10-22T06:29:25;11.70;;;4.57;;
21251;SDS011;10784;50.578;17.878;2022-10-22T06:31:57;9.07;;;5.03;;
21251;SDS011;10784;50.578;17.878;2022-10-22T06:34:30;16.45;;;7.03;;
21251;SDS011;10784;50.578;17.878;2022-10-22T06:37:02;29.73;;;13.90;;
21251;SDS011;10784;50.578;17.878;2022-10-22T06:39:36;13.18;;;6.93;;
21251;SDS011;10784;50.578;17.878;2022-10-22T06:42:08;19.17;;;11.20;;
21251;SDS011;10784;50.578;17.878;2022-10-22T06:44:44;9.75;;;5.43;;
21251;SDS011;10784;50.578;17.878;2022-10-22T06:47:16;9.30;;;4.97;;
21251;SDS011;10784;50.578;17.878;2022-10-22T06:49:49;11.32;;;4.68;;
21251;SDS011;10784;50.578;17.878;2022-10-22T06:52:21;10.60;;;4.93;;
21251;SDS011;10784;50.578;17.878;2022-10-22T06:54:55;9.38;;;4.35;;
21251;SDS011;10784;50.578;17.878;2022-10-22T06:57:28;10.27;;;5.07;;
21251;SDS011;10784;50.578;17.878;2022-10-22T07:00:01;9.25;;;4.97;;
21251;SDS011;10784;50.578;17.878;2022-10-22T07:02:34;8.60;;;4.13;;
21251;SDS011;10784;50.578;17.878;2022-10-22T07:05:07;8.38;;;4.43;;
21251;SDS011;10784;50.578;17.878;2022-10-22T07:07:39;9.43;;;3.85;;
21251;SDS011;10784;50.578;17.878;2022-10-22T07:10:12;30.48;;;15.23;;
21251;SDS011;10784;50.578;17.878;2022-10-22T07:12:45;19.38;;;10.50;;
21251;SDS011;10784;50.578;17.878;2022-10-22T07:15:18;11.63;;;5.78;;
21251;SDS011;10784;50.578;17.878;2022-10-22T07:17:50;11.82;;;4.55;;
21251;SDS011;10784;50.578;17.878;2022-10-22T07:20:23;10.27;;;4.60;;
21251;SDS011;10784;50.578;17.878;2022-10-22T07:22:56;8.15;;;4.10;;
21251;SDS011;10784;50.578;17.878;2022-10-22T07:25:29;8.68;;;4.40;;
21251;SDS011;10784;50.578;17.878;2022-10-22T07:28:01;11.30;;;4.90;;
21251;SDS011;10784;50.578;17.878;2022-10-22T07:30:35;13.90;;;4.90;;
21251;SDS011;10784;50.578;17.878;2022-10-22T07:33:08;24.48;;;6.68;;
21251;SDS011;10784;50.578;17.878;2022-10-22T07:35:41;20.88;;;6.82;;
21251;SDS011;10784;50.578;17.878;2022-10-22T07:38:13;16.60;;;5.55;;
21251;SDS011;10784;50.578;17.878;2022-10-22T07:40:46;16.50;;;6.38;;
21251;SDS011;10784;50.578;17.878;2022-10-22T07:43:18;32.42;;;10.73;;
21251;SDS011;10784;50.578;17.878;2022-10-22T07:45:51;29.55;;;8.98;;
21251;SDS011;10784;50.578;17.878;2022-10-22T07:48:27;15.45;;;6.25;;
21251;SDS011;10784;50.578;17.878;2022-10-22T07:51:00;20.73;;;6.82;;
21251;SDS011;10784;50.578;17.878;2022-10-22T07:53:33;13.23;;;5.70;;
21251;SDS011;10784;50.578;17.878;2022-10-22T07:56:06;9.98;;;4.82;;
21251;SDS011;10784;50.578;17.878;2022-10-22T07:58:39;17.35;;;6.80;;
21251;SDS011;10784;50.578;17.878;2022-10-22T08:01:13;21.20;;;7.18;;
21251;SDS011;10784;50.578;17.878;2022-10-22T08:03:45;10.43;;;5.10;;
21251;SDS011;10784;50.578;17.878;2022-10-22T08:06:18;35.92;;;10.70;;
21251;SDS011;10784;50.578;17.878;2022-10-22T08:08:51;32.43;;;10.00;;
21251;SDS011;10784;50.578;17.878;2022-10-22T08:11:24;25.52;;;8.68;;
21251;SDS011;10784;50.578;17.878;2022-10-22T08:13:58;9.70;;;5.15;;
21251;SDS011;10784;50.578;17.878;2022-10-22T08:16:31;10.23;;;4.97;;
21251;SDS011;10784;50.578;17.878;2022-10-22T08:19:03;8.55;;;4.80;;
21251;SDS011;10784;50.578;17.878;2022-10-22T08:21:36;13.38;;;5.38;;
21251;SDS011;10784;50.578;17.878;2022-10-22T08:24:10;14.13;;;5.53;;
21251;SDS011;10784;50.578;17.878;2022-10-22T08:26:54;10.20;;;5.40;;
21251;SDS011;10784;50.578;17.878;2022-10-22T08:29:34;13.10;;;5.22;;
21251;SDS011;10784;50.578;17.878;2022-10-22T08:32:07;12.32;;;5.38;;
21251;SDS011;10784;50.578;17.878;2022-10-22T08:34:39;11.73;;;6.07;;
21251;SDS011;10784;50.578;17.878;2022-10-22T08:37:12;9.15;;;4.95;;
21251;SDS011;10784;50.578;17.878;2022-10-22T08:39:45;18.70;;;7.25;;
21251;SDS011;10784;50.578;17.878;2022-10-22T08:45:14;9.38;;;4.47;;
21251;SDS011;10784;50.578;17.878;2022-10-22T08:48:01;8.27;;;4.25;;
21251;SDS011;10784;50.578;17.878;2022-10-22T08:50:38;8.90;;;4.70;;
21251;SDS011;10784;50.578;17.878;2022-10-22T08:53:14;9.30;;;5.20;;
21251;SDS011;10784;50.578;17.878;2022-10-22T08:55:51;12.07;;;5.28;;
21251;SDS011;10784;50.578;17.878;2022-10-22T08:58:31;15.73;;;6.45;;
21251;SDS011;10784;50.578;17.878;2022-10-22T09:01:09;28.27;;;10.53;;
21251;SDS011;10784;50.578;17.878;2022-10-22T09:03:47;23.90;;;9.48;;
21251;SDS011;10784;50.578;17.878;2022-10-22T09:06:25;26.13;;;9.77;;
21251;SDS011;10784;50.578;17.878;2022-10-22T09:08:58;12.10;;;6.15;;
21251;SDS011;10784;50.578;17.878;2022-10-22T09:11:36;15.45;;;5.68;;
21251;SDS011;10784;50.578;17.878;2022-10-22T09:14:11;9.93;;;5.07;;
21251;SDS011;10784;50.578;17.878;2022-10-22T09:20:08;13.35;;;6.38;;
21251;SDS011;10784;50.578;17.878;2022-10-22T09:25:01;16.35;;;7.32;;
21251;SDS011;10784;50.578;17.878;2022-10-22T09:27:41;20.57;;;9.20;;
21251;SDS011;10784;50.578;17.878;2022-10-22T09:30:16;12.38;;;5.80;;
21251;SDS011;10784;50.578;17.878;2022-10-22T09:33:06;19.13;;;8.68;;
21251;SDS011;10784;50.578;17.878;2022-10-22T09:35:47;11.48;;;5.78;;
21251;SDS011;10784;50.578;17.878;2022-10-22T09:38:24;17.30;;;7.57;;
21251;SDS011;10784;50.578;17.878;2022-10-22T09:40:58;9.32;;;5.53;;
21251;SDS011;10784;50.578;17.878;2022-10-22T09:43:31;16.30;;;5.88;;
21251;SDS011;10784;50.578;17.878;2022-10-22T09:46:05;18.52;;;6.43;;
21251;SDS011;10784;50.578;17.878;2022-10-22T09:48:40;15.63;;;7.20;;
21251;SDS011;10784;50.578;17.878;2022-10-22T09:51:20;11.15;;;5.35;;
21251;SDS011;10784;50.578;17.878;2022-10-22T09:53:57;14.57;;;5.88;;
21251;SDS011;10784;50.578;17.878;2022-10-22T09:56:34;13.85;;;6.43;;
21251;SDS011;10784;50.578;17.878;2022-10-22T09:59:16;15.23;;;6.35;;
21251;SDS011;10784;50.578;17.878;2022-10-22T10:01:55;11.45;;;5.97;;
21251;SDS011;10784;50.578;17.878;2022-10-22T10:04:46;10.90;;;5.50;;
21251;SDS011;10784;50.578;17.878;2022-10-22T10:07:26;10.60;;;5.43;;
21251;SDS011;10784;50.578;17.878;2022-10-22T10:10:05;10.55;;;4.80;;
21251;SDS011;10784;50.578;17.878;2022-10-22T10:12:54;13.80;;;5.97;;
21251;SDS011;10784;50.578;17.878;2022-10-22T10:21:07;13.88;;;6.50;;
21251;SDS011;10784;50.578;17.878;2022-10-22T10:23:47;11.13;;;5.65;;
21251;SDS011;10784;50.578;17.878;2022-10-22T10:26:25;13.37;;;5.43;;
21251;SDS011;10784;50.578;17.878;2022-10-22T10:29:06;12.38;;;5.75;;
21251;SDS011;10784;50.578;17.878;2022-10-22T10:37:14;12.65;;;5.90;;
21251;SDS011;10784;50.578;17.878;2022-10-22T10:43:23;10.25;;;5.18;;
21251;SDS011;10784;50.578;17.878;2022-10-22T10:57:08;17.77;;;5.65;;
21251;SDS011;10784;50.578;17.878;2022-10-22T10:59:53;13.35;;;5.47;;
21251;SDS011;10784;50.578;17.878;2022-10-22T11:05:29;15.70;;;6.60;;
21251;SDS011;10784;50.578;17.878;2022-10-22T11:08:06;14.75;;;6.57;;
21251;SDS011;10784;50.578;17.878;2022-10-22T11:10:43;14.18;;;6.72;;
21251;SDS011;10784;50.578;17.878;2022-10-22T11:13:21;35.28;;;10.65;;
21251;SDS011;10784;50.578;17.878;2022-10-22T11:21:55;14.18;;;6.85;;
21251;SDS011;10784;50.578;17.878;2022-10-22T11:24:42;15.35;;;6.43;;
21251;SDS011;10784;50.578;17.878;2022-10-22T11:27:27;14.27;;;6.68;;
21251;SDS011;10784;50.578;17.878;2022-10-22T11:30:04;14.50;;;5.97;;
21251;SDS011;10784;50.578;17.878;2022-10-22T11:32:53;12.27;;;5.90;;
21251;SDS011;10784;50.578;17.878;2022-10-22T11:35:38;11.23;;;5.82;;
21251;SDS011;10784;50.578;17.878;2022-10-22T11:38:22;11.27;;;5.55;;
21251;SDS011;10784;50.578;17.878;2022-10-22T11:41:06;12.05;;;5.40;;
21251;SDS011;10784;50.578;17.878;2022-10-22T11:46:37;10.93;;;6.13;;
21251;SDS011;10784;50.578;17.878;2022-10-22T11:51:45;11.77;;;5.20;;
21251;SDS011;10784;50.578;17.878;2022-10-22T12:07:55;12.38;;;5.90;;
21251;SDS011;10784;50.578;17.878;2022-10-22T12:10:33;11.40;;;5.15;;
21251;SDS011;10784;50.578;17.878;2022-10-22T12:13:10;9.45;;;5.32;;
21251;SDS011;10784;50.578;17.878;2022-10-22T12:15:47;11.75;;;5.65;;
21251;SDS011;10784;50.578;17.878;2022-10-22T12:18:22;15.68;;;6.45;;
21251;SDS011;10784;50.578;17.878;2022-10-22T12:20:55;11.05;;;5.80;;
21251;SDS011;10784;50.578;17.878;2022-10-22T12:23:30;17.77;;;6.75;;
21251;SDS011;10784;50.578;17.878;2022-10-22T12:26:03;12.10;;;5.30;;
21251;SDS011;10784;50.578;17.878;2022-10-22T12:28:39;10.65;;;4.90;;
21251;SDS011;10784;50.578;17.878;2022-10-22T12:31:14;14.20;;;5.90;;
21251;SDS011;10784;50.578;17.878;2022-10-22T12:33:58;17.08;;;6.43;;
21251;SDS011;10784;50.578;17.878;2022-10-22T12:36:32;22.05;;;8.10;;
21251;SDS011;10784;50.578;17.878;2022-10-22T12:39:13;18.55;;;7.60;;
21251;SDS011;10784;50.578;17.878;2022-10-22T12:41:46;20.00;;;7.55;;
21251;SDS011;10784;50.578;17.878;2022-10-22T12:44:19;15.27;;;6.57;;
21251;SDS011;10784;50.578;17.878;2022-10-22T12:46:51;13.93;;;7.20;;
21251;SDS011;10784;50.578;17.878;2022-10-22T12:49:35;12.15;;;6.38;;
21251;SDS011;10784;50.578;17.878;2022-10-22T12:52:16;14.07;;;5.60;;
21251;SDS011;10784;50.578;17.878;2022-10-22T12:54:50;13.63;;;5.75;;
21251;SDS011;10784;50.578;17.878;2022-10-22T12:57:23;13.30;;;6.10;;
21251;SDS011;10784;50.578;17.878;2022-10-22T12:59:56;16.10;;;6.63;;
21251;SDS011;10784;50.578;17.878;2022-10-22T13:02:29;14.05;;;5.45;;
21251;SDS011;10784;50.578;17.878;2022-10-22T13:05:05;14.93;;;6.38;;
21251;SDS011;10784;50.578;17.878;2022-10-22T13:07:40;11.98;;;5.63;;
21251;SDS011;10784;50.578;17.878;2022-10-22T13:10:14;15.77;;;6.95;;
21251;SDS011;10784;50.578;17.878;2022-10-22T13:12:49;16.75;;;6.80;;
21251;SDS011;10784;50.578;17.878;2022-10-22T13:18:15;12.93;;;5.95;;
21251;SDS011;10784;50.578;17.878;2022-10-22T13:20:58;12.27;;;5.45;;
21251;SDS011;10784;50.578;17.878;2022-10-22T13:23:34;13.63;;;5.70;;
21251;SDS011;10784;50.578;17.878;2022-10-22T13:26:14;20.38;;;6.68;;
21251;SDS011;10784;50.578;17.878;2022-10-22T13:28:52;10.13;;;5.85;;
21251;SDS011;10784;50.578;17.878;2022-10-22T13:31:26;16.13;;;6.70;;
21251;SDS011;10784;50.578;17.878;2022-10-22T13:34:00;14.30;;;6.45;;
21251;SDS011;10784;50.578;17.878;2022-10-22T13:36:41;16.00;;;6.10;;
21251;SDS011;10784;50.578;17.878;2022-10-22T13:39:22;14.95;;;7.28;;
21251;SDS011;10784;50.578;17.878;2022-10-22T13:41:55;17.13;;;8.23;;
21251;SDS011;10784;50.578;17.878;2022-10-22T13:44:28;13.32;;;7.22;;
21251;SDS011;10784;50.578;17.878;2022-10-22T13:47:01;22.35;;;7.97;;
21251;SDS011;10784;50.578;17.878;2022-10-22T13:49:33;14.75;;;7.05;;
21251;SDS011;10784;50.578;17.878;2022-10-22T13:52:08;15.48;;;6.30;;
21251;SDS011;10784;50.578;17.878;2022-10-22T13:54:41;19.90;;;9.65;;
21251;SDS011;10784;50.578;17.878;2022-10-22T13:57:14;25.90;;;12.20;;
21251;SDS011;10784;50.578;17.878;2022-10-22T13:59:46;16.63;;;9.27;;
21251;SDS011;10784;50.578;17.878;2022-10-22T14:02:19;15.13;;;7.38;;
21251;SDS011;10784;50.578;17.878;2022-10-22T14:04:55;24.35;;;10.10;;
21251;SDS011;10784;50.578;17.878;2022-10-22T14:07:34;27.00;;;10.88;;
21251;SDS011;10784;50.578;17.878;2022-10-22T14:10:14;27.15;;;12.10;;
21251;SDS011;10784;50.578;17.878;2022-10-22T14:12:47;22.83;;;11.20;;
21251;SDS011;10784;50.578;17.878;2022-10-22T14:15:26;21.52;;;9.80;;
21251;SDS011;10784;50.578;17.878;2022-10-22T14:18:00;16.67;;;8.52;;
21251;SDS011;10784;50.578;17.878;2022-10-22T14:20:34;17.30;;;8.65;;
21251;SDS011;10784;50.578;17.878;2022-10-22T14:23:12;16.13;;;8.23;;
21251;SDS011;10784;50.578;17.878;2022-10-22T14:25:46;36.10;;;15.05;;
21251;SDS011;10784;50.578;17.878;2022-10-22T14:28:19;31.08;;;12.38;;
21251;SDS011;10784;50.578;17.878;2022-10-22T14:30:52;25.33;;;12.07;;
21251;SDS011;10784;50.578;17.878;2022-10-22T14:33:27;27.60;;;11.60;;
21251;SDS011;10784;50.578;17.878;2022-10-22T14:36:03;27.50;;;12.75;;
21251;SDS011;10784;50.578;17.878;2022-10-22T14:38:36;47.03;;;18.35;;
21251;SDS011;10784;50.578;17.878;2022-10-22T14:41:13;30.15;;;15.45;;
21251;SDS011;10784;50.578;17.878;2022-10-22T14:43:47;41.47;;;16.85;;
21251;SDS011;10784;50.578;17.878;2022-10-22T14:46:21;25.87;;;11.93;;
21251;SDS011;10784;50.578;17.878;2022-10-22T14:48:53;28.35;;;10.80;;
21251;SDS011;10784;50.578;17.878;2022-10-22T14:51:26;28.10;;;13.25;;
21251;SDS011;10784;50.578;17.878;2022-10-22T14:53:59;21.63;;;10.80;;
21251;SDS011;10784;50.578;17.878;2022-10-22T14:56:32;24.38;;;12.85;;
21251;SDS011;10784;50.578;17.878;2022-10-22T14:59:05;16.38;;;8.18;;
21251;SDS011;10784;50.578;17.878;2022-10-22T15:01:40;20.95;;;9.98;;
21251;SDS011;10784;50.578;17.878;2022-10-22T15:04:14;19.27;;;6.72;;
21251;SDS011;10784;50.578;17.878;2022-10-22T15:06:49;19.30;;;7.03;;
21251;SDS011;10784;50.578;17.878;2022-10-22T15:09:22;15.98;;;6.95;;
21251;SDS011;10784;50.578;17.878;2022-10-22T15:11:55;20.40;;;8.00;;
21251;SDS011;10784;50.578;17.878;2022-10-22T15:14:28;13.10;;;7.43;;
21251;SDS011;10784;50.578;17.878;2022-10-22T15:17:01;18.33;;;7.97;;
21251;SDS011;10784;50.578;17.878;2022-10-22T15:19:34;10.90;;;5.18;;
21251;SDS011;10784;50.578;17.878;2022-10-22T15:22:07;7.43;;;4.55;;
21251;SDS011;10784;50.578;17.878;2022-10-22T15:24:40;9.63;;;4.47;;
21251;SDS011;10784;50.578;17.878;2022-10-22T15:27:16;12.23;;;6.30;;
21251;SDS011;10784;50.578;17.878;2022-10-22T15:29:49;12.70;;;5.05;;
21251;SDS011;10784;50.578;17.878;2022-10-22T15:32:21;10.43;;;4.68;;
21251;SDS011;10784;50.578;17.878;2022-10-22T15:34:54;9.13;;;4.10;;
21251;SDS011;10784;50.578;17.878;2022-10-22T15:37:27;8.05;;;4.13;;
21251;SDS011;10784;50.578;17.878;2022-10-22T15:40:00;11.50;;;5.03;;
21251;SDS011;10784;50.578;17.878;2022-10-22T15:42:34;10.32;;;5.03;;
21251;SDS011;10784;50.578;17.878;2022-10-22T15:45:10;20.40;;;8.20;;
21251;SDS011;10784;50.578;17.878;2022-10-22T15:47:44;15.35;;;6.38;;
21251;SDS011;10784;50.578;17.878;2022-10-22T15:50:19;17.85;;;7.68;;
21251;SDS011;10784;50.578;17.878;2022-10-22T15:52:51;32.70;;;12.10;;
21251;SDS011;10784;50.578;17.878;2022-10-22T15:55:25;67.78;;;21.00;;
21251;SDS011;10784;50.578;17.878;2022-10-22T15:57:58;73.45;;;21.35;;
21251;SDS011;10784;50.578;17.878;2022-10-22T16:00:35;68.38;;;24.30;;
21251;SDS011;10784;50.578;17.878;2022-10-22T16:03:07;56.17;;;18.15;;
21251;SDS011;10784;50.578;17.878;2022-10-22T16:05:48;39.20;;;16.27;;
21251;SDS011;10784;50.578;17.878;2022-10-22T16:08:20;54.72;;;23.00;;
21251;SDS011;10784;50.578;17.878;2022-10-22T16:10:53;35.03;;;14.95;;
21251;SDS011;10784;50.578;17.878;2022-10-22T16:13:26;28.27;;;12.00;;
21251;SDS011;10784;50.578;17.878;2022-10-22T16:16:02;34.50;;;14.82;;
21251;SDS011;10784;50.578;17.878;2022-10-22T16:18:35;32.88;;;15.25;;
21251;SDS011;10784;50.578;17.878;2022-10-22T16:21:13;20.25;;;9.70;;
21251;SDS011;10784;50.578;17.878;2022-10-22T16:23:46;19.37;;;11.17;;
21251;SDS011;10784;50.578;17.878;2022-10-22T16:26:19;16.70;;;8.25;;
21251;SDS011;10784;50.578;17.878;2022-10-22T16:28:52;14.02;;;6.18;;
21251;SDS011;10784;50.578;17.878;2022-10-22T16:31:24;11.63;;;6.00;;
21251;SDS011;10784;50.578;17.878;2022-10-22T16:33:57;11.55;;;5.95;;
21251;SDS011;10784;50.578;17.878;2022-10-22T16:36:30;19.33;;;8.20;;
21251;SDS011;10784;50.578;17.878;2022-10-22T16:39:03;24.63;;;9.27;;
21251;SDS011;10784;50.578;17.878;2022-10-22T16:41:36;25.80;;;9.40;;
21251;SDS011;10784;50.578;17.878;2022-10-22T16:44:09;27.47;;;9.33;;
21251;SDS011;10784;50.578;17.878;2022-10-22T16:46:42;24.57;;;8.43;;